KCQB

Chandler Regional Airport

Chandler, Oklahoma, USA
METAR KCQB 220515Z AUTO 36006KT 10SM CLR 23/18 A2988 RMK AO2 T02260182
Observed Flight Rules
Jun-22 @ 05:15 UTC (16 minutes ago) Visual Flight Rules
Wind Visibility Clouds
360° at 6 knots 10 miles
  • Clear skies
Temperatures Readings
Current 23°C / 73°F
Dewpoint 18°C / 64°F
Humidity 74%
Altimeter 29.88" Hg
Pressure 1012 hPa
Elevation 300
METAR KCQB 220515Z AUTO 36006KT 10SM CLR 23/18 A2988 RMK AO2 T02260182
Observed Flight Rules
Jun-22 @ 05:15 UTC
(16 minutes ago)
VFR
Wind Visibility
360° at 6 knots 10 miles
Clouds
  • Clear skies
Temperature Dewpoint
23°C / 73°F 18°C / 64°F
Humidity Altimeter Pressure
74% 29.88" Hg 1012 hPa